sensor_id;sensor_type;location;lat;lon;timestamp;P1;durP1;ratioP1;P2;durP2;ratioP2
4202;SDS011;2115;51.038;7.006;2023-05-13T00:00:11;641.77;;;223.87;;
4202;SDS011;2115;51.038;7.006;2023-05-13T00:02:37;635.07;;;213.50;;
4202;SDS011;2115;51.038;7.006;2023-05-13T00:05:02;642.40;;;211.63;;
4202;SDS011;2115;51.038;7.006;2023-05-13T00:07:29;639.83;;;221.17;;
4202;SDS011;2115;51.038;7.006;2023-05-13T00:09:54;640.47;;;222.70;;
4202;SDS011;2115;51.038;7.006;2023-05-13T00:12:20;640.80;;;220.90;;
4202;SDS011;2115;51.038;7.006;2023-05-13T00:14:45;646.93;;;224.77;;
4202;SDS011;2115;51.038;7.006;2023-05-13T00:17:10;635.07;;;219.57;;
4202;SDS011;2115;51.038;7.006;2023-05-13T00:19:36;631.07;;;212.93;;
4202;SDS011;2115;51.038;7.006;2023-05-13T00:22:01;639.37;;;227.83;;
4202;SDS011;2115;51.038;7.006;2023-05-13T00:24:27;641.40;;;218.10;;
4202;SDS011;2115;51.038;7.006;2023-05-13T00:26:52;625.50;;;206.70;;
4202;SDS011;2115;51.038;7.006;2023-05-13T00:29:17;637.77;;;218.50;;
4202;SDS011;2115;51.038;7.006;2023-05-13T00:31:43;638.50;;;213.67;;
4202;SDS011;2115;51.038;7.006;2023-05-13T00:34:08;635.73;;;216.37;;
4202;SDS011;2115;51.038;7.006;2023-05-13T00:36:34;635.80;;;216.40;;
4202;SDS011;2115;51.038;7.006;2023-05-13T00:38:59;627.30;;;206.83;;
4202;SDS011;2115;51.038;7.006;2023-05-13T00:41:24;627.43;;;205.83;;
4202;SDS011;2115;51.038;7.006;2023-05-13T00:43:52;638.87;;;222.07;;
4202;SDS011;2115;51.038;7.006;2023-05-13T00:46:19;638.20;;;218.53;;
4202;SDS011;2115;51.038;7.006;2023-05-13T00:48:45;633.00;;;210.37;;
4202;SDS011;2115;51.038;7.006;2023-05-13T00:51:11;630.03;;;207.87;;
4202;SDS011;2115;51.038;7.006;2023-05-13T00:53:37;627.13;;;211.50;;
4202;SDS011;2115;51.038;7.006;2023-05-13T00:56:03;633.03;;;203.73;;
4202;SDS011;2115;51.038;7.006;2023-05-13T00:58:29;631.30;;;214.00;;
4202;SDS011;2115;51.038;7.006;2023-05-13T01:03:34;634.20;;;210.77;;
4202;SDS011;2115;51.038;7.006;2023-05-13T01:06:14;627.93;;;205.53;;
4202;SDS011;2115;51.038;7.006;2023-05-13T01:11:27;624.57;;;203.23;;
4202;SDS011;2115;51.038;7.006;2023-05-13T01:13:58;629.70;;;213.27;;
4202;SDS011;2115;51.038;7.006;2023-05-13T01:16:31;639.17;;;206.67;;
4202;SDS011;2115;51.038;7.006;2023-05-13T01:19:01;619.67;;;202.37;;
4202;SDS011;2115;51.038;7.006;2023-05-13T01:21:34;622.83;;;196.93;;
4202;SDS011;2115;51.038;7.006;2023-05-13T01:24:00;625.97;;;198.93;;
4202;SDS011;2115;51.038;7.006;2023-05-13T01:26:25;622.20;;;197.23;;
4202;SDS011;2115;51.038;7.006;2023-05-13T01:28:51;628.37;;;206.77;;
4202;SDS011;2115;51.038;7.006;2023-05-13T01:31:16;619.00;;;195.60;;
4202;SDS011;2115;51.038;7.006;2023-05-13T01:33:43;615.53;;;189.67;;
4202;SDS011;2115;51.038;7.006;2023-05-13T01:36:08;618.57;;;198.93;;
4202;SDS011;2115;51.038;7.006;2023-05-13T01:38:34;609.83;;;186.20;;
4202;SDS011;2115;51.038;7.006;2023-05-13T01:41:02;627.73;;;196.33;;
4202;SDS011;2115;51.038;7.006;2023-05-13T01:43:27;628.10;;;198.97;;
4202;SDS011;2115;51.038;7.006;2023-05-13T01:45:52;623.70;;;193.53;;
4202;SDS011;2115;51.038;7.006;2023-05-13T01:48:18;627.00;;;209.23;;
4202;SDS011;2115;51.038;7.006;2023-05-13T01:50:44;620.30;;;203.83;;
4202;SDS011;2115;51.038;7.006;2023-05-13T01:53:10;627.80;;;204.43;;
4202;SDS011;2115;51.038;7.006;2023-05-13T01:55:36;625.53;;;199.00;;
4202;SDS011;2115;51.038;7.006;2023-05-13T01:58:01;613.30;;;185.03;;
4202;SDS011;2115;51.038;7.006;2023-05-13T02:00:27;625.00;;;187.37;;
4202;SDS011;2115;51.038;7.006;2023-05-13T02:02:52;613.87;;;184.73;;
4202;SDS011;2115;51.038;7.006;2023-05-13T02:05:17;618.43;;;191.00;;
4202;SDS011;2115;51.038;7.006;2023-05-13T02:07:43;614.87;;;185.90;;
4202;SDS011;2115;51.038;7.006;2023-05-13T02:10:08;626.30;;;194.47;;
4202;SDS011;2115;51.038;7.006;2023-05-13T02:12:34;637.23;;;194.67;;
4202;SDS011;2115;51.038;7.006;2023-05-13T02:15:00;618.80;;;189.60;;
4202;SDS011;2115;51.038;7.006;2023-05-13T02:17:25;613.40;;;187.03;;
4202;SDS011;2115;51.038;7.006;2023-05-13T02:19:51;631.33;;;199.60;;
4202;SDS011;2115;51.038;7.006;2023-05-13T02:22:16;611.40;;;188.33;;
4202;SDS011;2115;51.038;7.006;2023-05-13T02:24:41;619.33;;;188.80;;
4202;SDS011;2115;51.038;7.006;2023-05-13T02:27:07;611.97;;;181.97;;
4202;SDS011;2115;51.038;7.006;2023-05-13T02:29:33;625.73;;;199.33;;
4202;SDS011;2115;51.038;7.006;2023-05-13T02:31:58;627.03;;;195.33;;
4202;SDS011;2115;51.038;7.006;2023-05-13T02:34:24;610.80;;;188.23;;
4202;SDS011;2115;51.038;7.006;2023-05-13T02:36:49;609.83;;;181.83;;
4202;SDS011;2115;51.038;7.006;2023-05-13T02:39:16;614.27;;;187.57;;
4202;SDS011;2115;51.038;7.006;2023-05-13T02:41:41;615.87;;;192.63;;
4202;SDS011;2115;51.038;7.006;2023-05-13T02:44:08;614.67;;;187.23;;
4202;SDS011;2115;51.038;7.006;2023-05-13T02:46:34;612.70;;;187.03;;
4202;SDS011;2115;51.038;7.006;2023-05-13T02:48:59;616.00;;;197.00;;
4202;SDS011;2115;51.038;7.006;2023-05-13T02:51:24;612.67;;;191.83;;
4202;SDS011;2115;51.038;7.006;2023-05-13T02:53:50;620.50;;;199.17;;
4202;SDS011;2115;51.038;7.006;2023-05-13T02:56:15;619.60;;;185.33;;
4202;SDS011;2115;51.038;7.006;2023-05-13T02:58:41;613.47;;;185.40;;
4202;SDS011;2115;51.038;7.006;2023-05-13T03:01:06;616.57;;;190.53;;
4202;SDS011;2115;51.038;7.006;2023-05-13T03:03:31;623.83;;;191.87;;
4202;SDS011;2115;51.038;7.006;2023-05-13T03:05:57;610.57;;;186.47;;
4202;SDS011;2115;51.038;7.006;2023-05-13T03:08:22;618.87;;;190.53;;
4202;SDS011;2115;51.038;7.006;2023-05-13T03:10:48;611.20;;;187.73;;
4202;SDS011;2115;51.038;7.006;2023-05-13T03:13:13;606.90;;;180.40;;
4202;SDS011;2115;51.038;7.006;2023-05-13T03:15:38;613.70;;;183.67;;
4202;SDS011;2115;51.038;7.006;2023-05-13T03:18:04;606.07;;;179.60;;
4202;SDS011;2115;51.038;7.006;2023-05-13T03:20:29;622.57;;;188.37;;
4202;SDS011;2115;51.038;7.006;2023-05-13T03:22:55;618.33;;;185.77;;
4202;SDS011;2115;51.038;7.006;2023-05-13T03:25:20;615.00;;;185.60;;
4202;SDS011;2115;51.038;7.006;2023-05-13T03:27:46;614.17;;;186.83;;
4202;SDS011;2115;51.038;7.006;2023-05-13T03:30:11;615.30;;;188.53;;
4202;SDS011;2115;51.038;7.006;2023-05-13T03:32:37;606.23;;;180.77;;
4202;SDS011;2115;51.038;7.006;2023-05-13T03:35:03;629.03;;;197.13;;
4202;SDS011;2115;51.038;7.006;2023-05-13T03:37:28;606.67;;;185.13;;
4202;SDS011;2115;51.038;7.006;2023-05-13T03:39:54;620.23;;;188.33;;
4202;SDS011;2115;51.038;7.006;2023-05-13T03:42:19;611.50;;;189.87;;
4202;SDS011;2115;51.038;7.006;2023-05-13T03:44:45;608.27;;;183.93;;
4202;SDS011;2115;51.038;7.006;2023-05-13T03:47:10;626.70;;;192.40;;
4202;SDS011;2115;51.038;7.006;2023-05-13T03:49:35;620.50;;;181.70;;
4202;SDS011;2115;51.038;7.006;2023-05-13T03:52:01;607.80;;;175.73;;
4202;SDS011;2115;51.038;7.006;2023-05-13T03:54:27;605.07;;;180.10;;
4202;SDS011;2115;51.038;7.006;2023-05-13T03:56:52;606.47;;;177.83;;
4202;SDS011;2115;51.038;7.006;2023-05-13T03:59:17;607.27;;;180.53;;
4202;SDS011;2115;51.038;7.006;2023-05-13T04:01:43;618.20;;;186.70;;
4202;SDS011;2115;51.038;7.006;2023-05-13T04:04:08;615.53;;;185.47;;
4202;SDS011;2115;51.038;7.006;2023-05-13T04:06:33;611.70;;;182.43;;
4202;SDS011;2115;51.038;7.006;2023-05-13T04:08:59;615.57;;;190.60;;
4202;SDS011;2115;51.038;7.006;2023-05-13T04:11:26;617.70;;;184.70;;
4202;SDS011;2115;51.038;7.006;2023-05-13T04:13:51;615.10;;;182.67;;
4202;SDS011;2115;51.038;7.006;2023-05-13T04:16:16;607.37;;;182.67;;
4202;SDS011;2115;51.038;7.006;2023-05-13T04:18:42;611.73;;;178.93;;
4202;SDS011;2115;51.038;7.006;2023-05-13T04:21:07;625.77;;;188.03;;
4202;SDS011;2115;51.038;7.006;2023-05-13T04:23:35;611.97;;;185.43;;
4202;SDS011;2115;51.038;7.006;2023-05-13T04:26:00;612.37;;;182.23;;
4202;SDS011;2115;51.038;7.006;2023-05-13T04:28:26;610.93;;;178.43;;
4202;SDS011;2115;51.038;7.006;2023-05-13T04:30:51;606.20;;;180.77;;
4202;SDS011;2115;51.038;7.006;2023-05-13T04:33:17;613.20;;;186.27;;
4202;SDS011;2115;51.038;7.006;2023-05-13T04:35:42;606.27;;;181.73;;
4202;SDS011;2115;51.038;7.006;2023-05-13T04:38:07;614.30;;;185.37;;
4202;SDS011;2115;51.038;7.006;2023-05-13T04:40:33;607.30;;;177.63;;
4202;SDS011;2115;51.038;7.006;2023-05-13T04:42:58;604.90;;;178.47;;
4202;SDS011;2115;51.038;7.006;2023-05-13T04:45:24;615.43;;;183.60;;
4202;SDS011;2115;51.038;7.006;2023-05-13T04:47:49;612.07;;;188.53;;
4202;SDS011;2115;51.038;7.006;2023-05-13T04:50:15;620.13;;;188.53;;
4202;SDS011;2115;51.038;7.006;2023-05-13T04:52:40;611.27;;;189.27;;
4202;SDS011;2115;51.038;7.006;2023-05-13T04:55:10;619.20;;;188.20;;
4202;SDS011;2115;51.038;7.006;2023-05-13T04:57:35;621.13;;;196.67;;
4202;SDS011;2115;51.038;7.006;2023-05-13T05:00:01;620.23;;;189.93;;
4202;SDS011;2115;51.038;7.006;2023-05-13T05:02:28;618.33;;;190.03;;
4202;SDS011;2115;51.038;7.006;2023-05-13T05:04:54;616.77;;;191.53;;
4202;SDS011;2115;51.038;7.006;2023-05-13T05:07:20;619.13;;;181.40;;
4202;SDS011;2115;51.038;7.006;2023-05-13T05:09:46;621.20;;;192.77;;
4202;SDS011;2115;51.038;7.006;2023-05-13T05:12:11;613.00;;;189.10;;
4202;SDS011;2115;51.038;7.006;2023-05-13T05:14:37;619.73;;;196.50;;
4202;SDS011;2115;51.038;7.006;2023-05-13T05:17:12;610.20;;;184.43;;
4202;SDS011;2115;51.038;7.006;2023-05-13T05:19:37;618.10;;;186.03;;
4202;SDS011;2115;51.038;7.006;2023-05-13T05:22:02;618.60;;;191.90;;
4202;SDS011;2115;51.038;7.006;2023-05-13T05:24:28;624.43;;;194.33;;
4202;SDS011;2115;51.038;7.006;2023-05-13T05:26:54;623.83;;;195.07;;
4202;SDS011;2115;51.038;7.006;2023-05-13T05:29:22;616.70;;;192.10;;
4202;SDS011;2115;51.038;7.006;2023-05-13T05:31:47;614.93;;;192.57;;
4202;SDS011;2115;51.038;7.006;2023-05-13T05:34:13;617.83;;;191.83;;
4202;SDS011;2115;51.038;7.006;2023-05-13T05:36:38;631.97;;;208.87;;
4202;SDS011;2115;51.038;7.006;2023-05-13T05:39:03;626.20;;;208.90;;
4202;SDS011;2115;51.038;7.006;2023-05-13T05:41:29;623.27;;;210.93;;
4202;SDS011;2115;51.038;7.006;2023-05-13T05:43:54;622.63;;;206.60;;
4202;SDS011;2115;51.038;7.006;2023-05-13T05:46:23;634.53;;;212.20;;
4202;SDS011;2115;51.038;7.006;2023-05-13T05:48:48;642.70;;;221.93;;
4202;SDS011;2115;51.038;7.006;2023-05-13T05:51:14;637.37;;;216.63;;
4202;SDS011;2115;51.038;7.006;2023-05-13T05:53:39;636.13;;;221.90;;
4202;SDS011;2115;51.038;7.006;2023-05-13T05:56:06;639.13;;;225.67;;
4202;SDS011;2115;51.038;7.006;2023-05-13T05:58:31;634.73;;;216.73;;
4202;SDS011;2115;51.038;7.006;2023-05-13T06:00:57;656.53;;;234.83;;
4202;SDS011;2115;51.038;7.006;2023-05-13T06:03:24;646.83;;;234.17;;
4202;SDS011;2115;51.038;7.006;2023-05-13T06:05:50;656.60;;;235.00;;
4202;SDS011;2115;51.038;7.006;2023-05-13T06:08:15;662.07;;;252.23;;
4202;SDS011;2115;51.038;7.006;2023-05-13T06:10:41;653.87;;;238.00;;
4202;SDS011;2115;51.038;7.006;2023-05-13T06:13:06;654.87;;;238.27;;
4202;SDS011;2115;51.038;7.006;2023-05-13T06:15:31;660.90;;;247.27;;
4202;SDS011;2115;51.038;7.006;2023-05-13T06:17:57;671.07;;;259.87;;
4202;SDS011;2115;51.038;7.006;2023-05-13T06:20:22;670.63;;;260.37;;
4202;SDS011;2115;51.038;7.006;2023-05-13T06:22:48;680.00;;;278.40;;
4202;SDS011;2115;51.038;7.006;2023-05-13T06:25:13;680.30;;;272.07;;
4202;SDS011;2115;51.038;7.006;2023-05-13T06:27:38;691.33;;;296.30;;
4202;SDS011;2115;51.038;7.006;2023-05-13T06:30:04;693.07;;;283.47;;
4202;SDS011;2115;51.038;7.006;2023-05-13T06:32:30;700.50;;;296.37;;
4202;SDS011;2115;51.038;7.006;2023-05-13T06:34:55;703.77;;;321.83;;
4202;SDS011;2115;51.038;7.006;2023-05-13T06:37:22;695.87;;;297.60;;
4202;SDS011;2115;51.038;7.006;2023-05-13T06:39:48;707.37;;;321.37;;
4202;SDS011;2115;51.038;7.006;2023-05-13T06:42:13;701.03;;;301.43;;
4202;SDS011;2115;51.038;7.006;2023-05-13T06:44:39;708.67;;;327.73;;
4202;SDS011;2115;51.038;7.006;2023-05-13T06:47:04;713.00;;;312.57;;
4202;SDS011;2115;51.038;7.006;2023-05-13T06:49:33;707.50;;;325.93;;
4202;SDS011;2115;51.038;7.006;2023-05-13T06:51:59;709.87;;;312.77;;
4202;SDS011;2115;51.038;7.006;2023-05-13T06:54:24;706.87;;;330.57;;
4202;SDS011;2115;51.038;7.006;2023-05-13T06:56:51;712.87;;;333.33;;
4202;SDS011;2115;51.038;7.006;2023-05-13T06:59:17;701.37;;;321.33;;
4202;SDS011;2115;51.038;7.006;2023-05-13T07:01:43;701.70;;;317.50;;
4202;SDS011;2115;51.038;7.006;2023-05-13T07:04:09;699.40;;;303.37;;
4202;SDS011;2115;51.038;7.006;2023-05-13T07:06:34;711.20;;;325.10;;
4202;SDS011;2115;51.038;7.006;2023-05-13T07:09:00;702.47;;;307.73;;
4202;SDS011;2115;51.038;7.006;2023-05-13T07:11:25;700.20;;;302.10;;
4202;SDS011;2115;51.038;7.006;2023-05-13T07:13:51;714.73;;;318.03;;
4202;SDS011;2115;51.038;7.006;2023-05-13T07:16:16;708.53;;;329.00;;
4202;SDS011;2115;51.038;7.006;2023-05-13T07:18:42;714.97;;;323.43;;
4202;SDS011;2115;51.038;7.006;2023-05-13T07:21:07;697.33;;;306.93;;
4202;SDS011;2115;51.038;7.006;2023-05-13T07:23:33;702.67;;;311.73;;
4202;SDS011;2115;51.038;7.006;2023-05-13T07:25:59;705.33;;;329.50;;
4202;SDS011;2115;51.038;7.006;2023-05-13T07:28:25;708.13;;;329.70;;
4202;SDS011;2115;51.038;7.006;2023-05-13T07:30:51;705.63;;;326.43;;
4202;SDS011;2115;51.038;7.006;2023-05-13T07:33:17;709.63;;;331.90;;
4202;SDS011;2115;51.038;7.006;2023-05-13T07:35:43;723.43;;;324.70;;
4202;SDS011;2115;51.038;7.006;2023-05-13T07:38:08;704.80;;;326.70;;
4202;SDS011;2115;51.038;7.006;2023-05-13T07:40:35;720.27;;;333.30;;
4202;SDS011;2115;51.038;7.006;2023-05-13T07:43:00;709.43;;;344.13;;
4202;SDS011;2115;51.038;7.006;2023-05-13T07:45:26;713.93;;;348.43;;
4202;SDS011;2115;51.038;7.006;2023-05-13T07:47:51;719.63;;;351.37;;
4202;SDS011;2115;51.038;7.006;2023-05-13T07:50:17;711.47;;;346.90;;
4202;SDS011;2115;51.038;7.006;2023-05-13T07:52:42;712.07;;;353.40;;
4202;SDS011;2115;51.038;7.006;2023-05-13T07:55:08;723.73;;;355.27;;
4202;SDS011;2115;51.038;7.006;2023-05-13T07:57:34;723.77;;;374.97;;
4202;SDS011;2115;51.038;7.006;2023-05-13T08:00:00;724.00;;;374.97;;
4202;SDS011;2115;51.038;7.006;2023-05-13T08:02:25;718.20;;;368.83;;
4202;SDS011;2115;51.038;7.006;2023-05-13T08:04:51;727.83;;;391.70;;
4202;SDS011;2115;51.038;7.006;2023-05-13T08:07:16;740.67;;;399.37;;
4202;SDS011;2115;51.038;7.006;2023-05-13T08:09:42;740.47;;;412.90;;
4202;SDS011;2115;51.038;7.006;2023-05-13T08:12:07;741.97;;;412.10;;
4202;SDS011;2115;51.038;7.006;2023-05-13T08:14:33;731.90;;;400.13;;
4202;SDS011;2115;51.038;7.006;2023-05-13T08:16:58;735.13;;;405.10;;
4202;SDS011;2115;51.038;7.006;2023-05-13T08:19:24;731.30;;;417.07;;
4202;SDS011;2115;51.038;7.006;2023-05-13T08:21:49;743.53;;;423.37;;
4202;SDS011;2115;51.038;7.006;2023-05-13T08:24:14;740.47;;;429.27;;
4202;SDS011;2115;51.038;7.006;2023-05-13T08:26:40;748.67;;;433.23;;
4202;SDS011;2115;51.038;7.006;2023-05-13T08:29:05;746.43;;;443.40;;
4202;SDS011;2115;51.038;7.006;2023-05-13T08:31:30;764.20;;;459.97;;
4202;SDS011;2115;51.038;7.006;2023-05-13T08:33:56;760.30;;;475.20;;
4202;SDS011;2115;51.038;7.006;2023-05-13T08:36:21;752.10;;;449.03;;
4202;SDS011;2115;51.038;7.006;2023-05-13T08:38:47;755.10;;;488.77;;
4202;SDS011;2115;51.038;7.006;2023-05-13T08:41:12;752.50;;;474.77;;
4202;SDS011;2115;51.038;7.006;2023-05-13T08:43:38;783.03;;;488.50;;
4202;SDS011;2115;51.038;7.006;2023-05-13T08:46:05;760.17;;;473.73;;
4202;SDS011;2115;51.038;7.006;2023-05-13T08:48:33;759.43;;;473.17;;
4202;SDS011;2115;51.038;7.006;2023-05-13T08:50:59;755.93;;;461.30;;
4202;SDS011;2115;51.038;7.006;2023-05-13T08:53:26;753.43;;;458.23;;
4202;SDS011;2115;51.038;7.006;2023-05-13T08:55:51;755.17;;;446.87;;
4202;SDS011;2115;51.038;7.006;2023-05-13T08:58:17;749.17;;;444.13;;
4202;SDS011;2115;51.038;7.006;2023-05-13T09:00:42;737.30;;;424.43;;
4202;SDS011;2115;51.038;7.006;2023-05-13T09:03:08;750.23;;;415.60;;
4202;SDS011;2115;51.038;7.006;2023-05-13T09:05:34;755.80;;;444.97;;
4202;SDS011;2115;51.038;7.006;2023-05-13T09:08:00;745.37;;;455.67;;
4202;SDS011;2115;51.038;7.006;2023-05-13T09:10:31;742.73;;;448.03;;
4202;SDS011;2115;51.038;7.006;2023-05-13T09:12:57;749.50;;;447.83;;
4202;SDS011;2115;51.038;7.006;2023-05-13T09:15:23;755.60;;;417.50;;
4202;SDS011;2115;51.038;7.006;2023-05-13T09:17:51;743.07;;;435.80;;
4202;SDS011;2115;51.038;7.006;2023-05-13T09:20:20;747.10;;;444.13;;
4202;SDS011;2115;51.038;7.006;2023-05-13T09:22:54;766.53;;;465.60;;
4202;SDS011;2115;51.038;7.006;2023-05-13T09:25:21;755.53;;;478.13;;
4202;SDS011;2115;51.038;7.006;2023-05-13T09:27:51;755.53;;;460.13;;
4202;SDS011;2115;51.038;7.006;2023-05-13T09:30:21;754.50;;;454.13;;
4202;SDS011;2115;51.038;7.006;2023-05-13T09:33:02;761.40;;;471.50;;
4202;SDS011;2115;51.038;7.006;2023-05-13T09:35:29;768.27;;;508.30;;
4202;SDS011;2115;51.038;7.006;2023-05-13T09:37:55;767.73;;;506.53;;
4202;SDS011;2115;51.038;7.006;2023-05-13T09:40:21;778.43;;;492.43;;
4202;SDS011;2115;51.038;7.006;2023-05-13T09:42:46;758.40;;;496.87;;
4202;SDS011;2115;51.038;7.006;2023-05-13T09:45:12;750.50;;;490.77;;
4202;SDS011;2115;51.038;7.006;2023-05-13T09:47:39;771.30;;;516.33;;
4202;SDS011;2115;51.038;7.006;2023-05-13T09:50:05;756.33;;;495.73;;
4202;SDS011;2115;51.038;7.006;2023-05-13T09:52:32;773.83;;;523.70;;
4202;SDS011;2115;51.038;7.006;2023-05-13T09:54:59;771.53;;;519.63;;
4202;SDS011;2115;51.038;7.006;2023-05-13T09:57:28;755.50;;;510.10;;
4202;SDS011;2115;51.038;7.006;2023-05-13T09:59:57;755.97;;;519.17;;
4202;SDS011;2115;51.038;7.006;2023-05-13T10:02:23;754.63;;;495.17;;
4202;SDS011;2115;51.038;7.006;2023-05-13T10:04:49;752.37;;;492.77;;
4202;SDS011;2115;51.038;7.006;2023-05-13T10:07:15;764.87;;;490.60;;
4202;SDS011;2115;51.038;7.006;2023-05-13T10:09:41;756.67;;;485.23;;
4202;SDS011;2115;51.038;7.006;2023-05-13T10:12:08;759.17;;;498.87;;
4202;SDS011;2115;51.038;7.006;2023-05-13T10:14:35;754.87;;;501.10;;
4202;SDS011;2115;51.038;7.006;2023-05-13T10:17:01;765.47;;;512.63;;
4202;SDS011;2115;51.038;7.006;2023-05-13T10:19:26;764.23;;;519.43;;
4202;SDS011;2115;51.038;7.006;2023-05-13T10:21:52;766.77;;;530.97;;
4202;SDS011;2115;51.038;7.006;2023-05-13T10:24:18;769.27;;;525.93;;
4202;SDS011;2115;51.038;7.006;2023-05-13T10:26:45;785.83;;;564.93;;
4202;SDS011;2115;51.038;7.006;2023-05-13T10:29:12;776.97;;;539.73;;
4202;SDS011;2115;51.038;7.006;2023-05-13T10:31:37;774.17;;;576.07;;
4202;SDS011;2115;51.038;7.006;2023-05-13T10:34:03;777.93;;;553.47;;
4202;SDS011;2115;51.038;7.006;2023-05-13T10:36:48;770.37;;;557.23;;
4202;SDS011;2115;51.038;7.006;2023-05-13T10:42:36;781.13;;;544.27;;
4202;SDS011;2115;51.038;7.006;2023-05-13T10:45:04;766.87;;;544.23;;
4202;SDS011;2115;51.038;7.006;2023-05-13T10:47:34;781.93;;;574.50;;
4202;SDS011;2115;51.038;7.006;2023-05-13T10:50:07;775.10;;;545.13;;
4202;SDS011;2115;51.038;7.006;2023-05-13T10:52:47;787.73;;;578.40;;
4202;SDS011;2115;51.038;7.006;2023-05-13T10:55:16;771.93;;;567.33;;
4202;SDS011;2115;51.038;7.006;2023-05-13T10:58:17;788.17;;;575.77;;
4202;SDS011;2115;51.038;7.006;2023-05-13T11:00:36;787.30;;;609.40;;
4202;SDS011;2115;51.038;7.006;2023-05-13T11:03:13;778.67;;;580.93;;
4202;SDS011;2115;51.038;7.006;2023-05-13T11:05:41;793.23;;;610.93;;
4202;SDS011;2115;51.038;7.006;2023-05-13T11:08:08;792.20;;;635.43;;
4202;SDS011;2115;51.038;7.006;2023-05-13T11:10:34;781.33;;;620.57;;
4202;SDS011;2115;51.038;7.006;2023-05-13T11:13:21;798.60;;;636.20;;
4202;SDS011;2115;51.038;7.006;2023-05-13T11:15:50;798.57;;;653.00;;
4202;SDS011;2115;51.038;7.006;2023-05-13T11:18:17;801.97;;;666.30;;
4202;SDS011;2115;51.038;7.006;2023-05-13T11:20:44;799.77;;;691.30;;
4202;SDS011;2115;51.038;7.006;2023-05-13T11:23:17;800.63;;;661.87;;
4202;SDS011;2115;51.038;7.006;2023-05-13T11:25:46;803.80;;;661.33;;
4202;SDS011;2115;51.038;7.006;2023-05-13T11:31:22;781.70;;;592.57;;
4202;SDS011;2115;51.038;7.006;2023-05-13T11:34:04;795.73;;;606.53;;
4202;SDS011;2115;51.038;7.006;2023-05-13T11:36:31;787.50;;;594.63;;
4202;SDS011;2115;51.038;7.006;2023-05-13T11:39:04;780.17;;;549.17;;
4202;SDS011;2115;51.038;7.006;2023-05-13T11:41:33;778.90;;;556.33;;
4202;SDS011;2115;51.038;7.006;2023-05-13T11:43:58;770.63;;;537.23;;
4202;SDS011;2115;51.038;7.006;2023-05-13T11:46:27;779.07;;;543.27;;
4202;SDS011;2115;51.038;7.006;2023-05-13T11:48:52;790.53;;;566.00;;
4202;SDS011;2115;51.038;7.006;2023-05-13T11:51:17;769.07;;;540.97;;
4202;SDS011;2115;51.038;7.006;2023-05-13T11:53:43;777.57;;;557.17;;
4202;SDS011;2115;51.038;7.006;2023-05-13T11:56:08;786.60;;;592.23;;
4202;SDS011;2115;51.038;7.006;2023-05-13T11:58:36;768.50;;;542.10;;
4202;SDS011;2115;51.038;7.006;2023-05-13T12:01:02;775.10;;;549.90;;
4202;SDS011;2115;51.038;7.006;2023-05-13T12:03:28;775.53;;;566.47;;
4202;SDS011;2115;51.038;7.006;2023-05-13T12:06:00;773.97;;;551.73;;
4202;SDS011;2115;51.038;7.006;2023-05-13T12:08:26;774.80;;;550.63;;
4202;SDS011;2115;51.038;7.006;2023-05-13T12:10:51;780.17;;;563.77;;
4202;SDS011;2115;51.038;7.006;2023-05-13T12:13:17;773.97;;;563.70;;
4202;SDS011;2115;51.038;7.006;2023-05-13T12:15:43;778.30;;;586.90;;
4202;SDS011;2115;51.038;7.006;2023-05-13T12:18:08;774.93;;;587.50;;
4202;SDS011;2115;51.038;7.006;2023-05-13T12:20:34;775.80;;;579.80;;
4202;SDS011;2115;51.038;7.006;2023-05-13T12:22:59;776.87;;;570.13;;
4202;SDS011;2115;51.038;7.006;2023-05-13T12:25:35;773.13;;;582.83;;
4202;SDS011;2115;51.038;7.006;2023-05-13T12:28:12;782.70;;;593.40;;
4202;SDS011;2115;51.038;7.006;2023-05-13T12:31:03;780.13;;;587.80;;
4202;SDS011;2115;51.038;7.006;2023-05-13T12:33:50;771.70;;;562.37;;
4202;SDS011;2115;51.038;7.006;2023-05-13T12:39:04;788.97;;;590.63;;
4202;SDS011;2115;51.038;7.006;2023-05-13T12:41:32;780.87;;;580.67;;
4202;SDS011;2115;51.038;7.006;2023-05-13T12:44:13;769.83;;;563.33;;
4202;SDS011;2115;51.038;7.006;2023-05-13T12:46:52;769.53;;;544.43;;
4202;SDS011;2115;51.038;7.006;2023-05-13T12:49:18;791.70;;;588.10;;
4202;SDS011;2115;51.038;7.006;2023-05-13T12:51:43;793.03;;;612.03;;
4202;SDS011;2115;51.038;7.006;2023-05-13T12:54:09;795.63;;;633.87;;
4202;SDS011;2115;51.038;7.006;2023-05-13T12:56:36;814.83;;;658.60;;
4202;SDS011;2115;51.038;7.006;2023-05-13T12:59:01;798.70;;;666.00;;
4202;SDS011;2115;51.038;7.006;2023-05-13T13:01:27;800.13;;;665.17;;
4202;SDS011;2115;51.038;7.006;2023-05-13T13:03:52;809.97;;;706.80;;
4202;SDS011;2115;51.038;7.006;2023-05-13T13:06:17;809.63;;;710.10;;
4202;SDS011;2115;51.038;7.006;2023-05-13T13:08:43;807.30;;;702.03;;
4202;SDS011;2115;51.038;7.006;2023-05-13T13:11:08;804.30;;;672.47;;
4202;SDS011;2115;51.038;7.006;2023-05-13T13:13:34;818.47;;;682.27;;
4202;SDS011;2115;51.038;7.006;2023-05-13T13:15:59;788.77;;;605.13;;
4202;SDS011;2115;51.038;7.006;2023-05-13T13:18:25;789.87;;;594.87;;
4202;SDS011;2115;51.038;7.006;2023-05-13T13:20:51;777.17;;;536.43;;
4202;SDS011;2115;51.038;7.006;2023-05-13T13:23:17;764.33;;;510.53;;
4202;SDS011;2115;51.038;7.006;2023-05-13T13:25:42;762.70;;;506.37;;
4202;SDS011;2115;51.038;7.006;2023-05-13T13:28:08;771.47;;;517.47;;
4202;SDS011;2115;51.038;7.006;2023-05-13T13:30:33;763.10;;;488.07;;
4202;SDS011;2115;51.038;7.006;2023-05-13T13:32:59;762.30;;;510.67;;
4202;SDS011;2115;51.038;7.006;2023-05-13T13:35:24;796.93;;;529.13;;
4202;SDS011;2115;51.038;7.006;2023-05-13T13:37:50;789.33;;;586.73;;
4202;SDS011;2115;51.038;7.006;2023-05-13T13:40:15;799.87;;;652.27;;
4202;SDS011;2115;51.038;7.006;2023-05-13T13:42:42;808.13;;;712.87;;
4202;SDS011;2115;51.038;7.006;2023-05-13T13:45:08;863.90;;;772.60;;
4202;SDS011;2115;51.038;7.006;2023-05-13T13:47:34;937.13;;;845.07;;
4202;SDS011;2115;51.038;7.006;2023-05-13T13:49:59;957.00;;;864.93;;
4202;SDS011;2115;51.038;7.006;2023-05-13T13:52:25;997.80;;;904.90;;
4202;SDS011;2115;51.038;7.006;2023-05-13T13:54:52;1010.63;;;918.73;;
4202;SDS011;2115;51.038;7.006;2023-05-13T13:57:18;1010.80;;;919.83;;
4202;SDS011;2115;51.038;7.006;2023-05-13T13:59:43;981.35;;;892.13;;
4202;SDS011;2115;51.038;7.006;2023-05-13T14:02:09;984.63;;;896.33;;
4202;SDS011;2115;51.038;7.006;2023-05-13T14:04:34;987.40;;;899.05;;
4202;SDS011;2115;51.038;7.006;2023-05-13T14:07:02;954.20;;;868.75;;
4202;SDS011;2115;51.038;7.006;2023-05-13T14:09:28;974.83;;;887.78;;
4202;SDS011;2115;51.038;7.006;2023-05-13T14:11:53;997.80;;;910.40;;
4202;SDS011;2115;51.038;7.006;2023-05-13T14:14:19;1020.03;;;929.97;;
4202;SDS011;2115;51.038;7.006;2023-05-13T14:16:45;987.97;;;899.22;;
4202;SDS011;2115;51.038;7.006;2023-05-13T14:19:11;995.95;;;908.47;;
4202;SDS011;2115;51.038;7.006;2023-05-13T14:21:36;1033.87;;;943.37;;
4202;SDS011;2115;51.038;7.006;2023-05-13T14:24:02;1047.10;;;951.50;;
4202;SDS011;2115;51.038;7.006;2023-05-13T14:26:28;1069.90;;;970.47;;
4202;SDS011;2115;51.038;7.006;2023-05-13T14:28:53;1049.60;;;949.30;;
4202;SDS011;2115;51.038;7.006;2023-05-13T14:31:19;988.10;;;889.93;;